Time;durP1;ratioP1;P1;durP2;ratioP2;P2;SDS_P1;SDS_P2;PMS_P1;PMS_P2;Temp;Humidity;BMP_temperature;BMP_pressure;BME280_temperature;BME280_humidity;BME280_pressure;Samples;Min_cycle;Max_cycle;Signal;HPM_P1;HPM_P2
2022/02/23 00:01:04;;;;;;;31.27;12.53;;;;;;;2.25;73.76;99034.59;1697341;84;21075;-70
2022/02/23 00:03:32;;;;;;;31.30;13.28;;;;;;;2.19;73.90;99023.73;1697434;84;21093;-71
2022/02/23 00:06:02;;;;;;;29.42;13.68;;;;;;;2.19;74.11;99031.88;1697571;83;20893;-71
2022/02/23 00:08:30;;;;;;;38.85;18.40;;;;;;;2.22;74.60;99036.50;1697573;84;21920;-71
2022/02/23 00:10:59;;;;;;;41.20;16.35;;;;;;;2.27;74.84;99037.85;1697574;84;20904;-68
2022/02/23 00:13:32;;;;;;;31.40;15.70;;;;;;;2.29;74.98;99033.75;1697353;84;20857;-71
2022/02/23 00:16:09;;;;;;;;;;;;;;;2.31;75.08;99026.67;1699995;84;21016;-71
2022/02/23 00:18:36;;;;;;;24.18;12.15;;;;;;;2.34;75.20;99034.84;1697760;84;20079;-71
2022/02/23 00:21:04;;;;;;;24.15;11.28;;;;;;;2.37;75.23;99032.36;1697411;84;21143;-72
2022/02/23 00:23:35;;;;;;;24.80;11.43;;;;;;;2.39;75.29;99032.90;1697251;84;20947;-71
2022/02/23 00:26:03;;;;;;;20.75;9.55;;;;;;;2.43;75.48;99039.96;1697374;84;21551;-71
2022/02/23 00:28:30;;;;;;;17.37;8.53;;;;;;;2.46;75.49;99038.04;1697446;84;20992;-70
2022/02/23 00:31:00;;;;;;;17.65;8.45;;;;;;;2.48;75.60;99028.24;1697457;84;20961;-72
2022/02/23 00:33:28;;;;;;;15.13;7.05;;;;;;;2.49;75.80;99025.81;1697227;84;21275;-71
2022/02/23 00:35:58;;;;;;;14.58;7.30;;;;;;;2.48;75.84;99024.98;1697478;84;21370;-69
2022/02/23 00:38:25;;;;;;;20.10;7.87;;;;;;;2.46;75.87;99021.72;1697140;84;21055;-67
2022/02/23 00:40:52;;;;;;;20.40;8.45;;;;;;;2.43;76.05;99016.30;1697555;84;21521;-71
2022/02/23 00:43:20;;;;;;;18.32;8.10;;;;;;;2.42;76.20;99022.82;1696559;84;21511;-71
2022/02/23 00:45:48;;;;;;;22.35;9.33;;;;;;;2.40;76.15;99024.20;1697419;84;21695;-70
2022/02/23 00:48:15;;;;;;;21.30;8.63;;;;;;;2.38;76.09;99023.66;1697495;84;20969;-71
2022/02/23 00:50:45;;;;;;;17.27;9.00;;;;;;;2.34;76.08;99027.47;1697592;84;20944;-71
2022/02/23 00:53:16;;;;;;;15.23;7.47;;;;;;;2.31;76.33;99026.67;1697592;84;21027;-71
2022/02/23 00:55:44;;;;;;;22.42;10.75;;;;;;;2.28;76.43;99025.87;1697507;84;21024;-70
2022/02/23 00:58:12;;;;;;;23.10;11.10;;;;;;;2.24;76.51;99025.61;1697543;84;21552;-69
2022/02/23 01:00:41;;;;;;;24.52;10.78;;;;;;;2.19;76.51;99025.09;1697317;84;21489;-71
2022/02/23 01:03:11;;;;;;;27.20;12.73;;;;;;;2.16;76.57;99024.82;1697552;84;20929;-71
2022/02/23 01:05:39;;;;;;;24.60;10.90;;;;;;;2.10;76.56;99022.64;1669416;84;21642;-72
2022/02/23 01:08:09;;;;;;;30.20;14.43;;;;;;;2.04;76.52;99031.91;1697396;84;21008;-69
2022/02/23 01:10:35;;;;;;;30.60;13.38;;;;;;;1.95;76.87;99039.80;1697168;84;21145;-72
2022/02/23 01:13:02;;;;;;;28.27;12.33;;;;;;;1.89;77.29;99043.09;1697237;84;21036;-71
2022/02/23 01:15:30;;;;;;;27.60;12.33;;;;;;;1.88;77.51;99045.52;1692893;84;20940;-71
2022/02/23 01:17:56;;;;;;;46.98;18.37;;;;;;;1.90;77.79;99050.68;1697465;84;20913;-69
2022/02/23 01:20:29;;;;;;;63.17;22.50;;;;;;;1.96;78.35;99055.58;1697264;84;21007;-71
2022/02/23 01:22:58;;;;;;;80.05;25.85;;;;;;;2.04;78.66;99055.84;1697445;84;21535;-71
2022/02/23 01:25:26;;;;;;;67.20;24.32;;;;;;;2.12;78.68;99057.17;1697720;83;20997;-70
2022/02/23 01:27:55;;;;;;;75.72;25.72;;;;;;;2.18;78.64;99062.86;1697482;84;21064;-68
2022/02/23 01:30:26;;;;;;;63.92;22.77;;;;;;;2.21;78.65;99062.05;1697785;84;21484;-72
2022/02/23 01:32:55;;;;;;;54.30;19.48;;;;;;;2.24;78.69;99058.23;1697592;84;20945;-71
2022/02/23 01:35:25;;;;;;;41.77;16.40;;;;;;;2.27;78.71;99063.68;1697448;84;21416;-71
2022/02/23 01:37:59;;;;;;;40.30;16.30;;;;;;;2.27;78.82;99068.55;1697523;84;21023;-71
2022/02/23 01:40:26;;;;;;;35.45;13.65;;;;;;;2.29;79.05;99073.18;1697431;84;21132;-71
2022/02/23 01:43:00;;;;;;;27.30;10.80;;;;;;;2.32;79.27;99073.16;1697472;84;20987;-71
2022/02/23 01:45:27;;;;;;;14.00;7.92;;;;;;;2.33;79.52;99077.52;1669766;84;20953;-71
2022/02/23 01:47:55;;;;;;;15.58;7.90;;;;;;;2.36;79.75;99079.69;1686341;84;21271;-71
2022/02/23 01:50:26;;;;;;;14.65;7.22;;;;;;;2.38;80.01;99086.20;1682457;85;20949;-70
2022/02/23 01:52:54;;;;;;;18.20;8.33;;;;;;;2.41;80.20;99088.37;1682364;85;21056;-71
2022/02/23 01:55:27;;;;;;;15.40;8.78;;;;;;;2.44;80.38;99087.81;1683012;85;21502;-71
2022/02/23 01:57:58;;;;;;;16.65;7.55;;;;;;;2.45;80.36;99094.08;1679893;85;20897;-70
2022/02/23 02:00:26;;;;;;;17.07;8.60;;;;;;;2.43;80.47;99104.70;1682783;85;21509;-70
2022/02/23 02:02:55;;;;;;;17.98;7.42;;;;;;;2.41;80.58;99100.61;1682397;85;21053;-72
2022/02/23 02:05:26;;;;;;;15.63;7.45;;;;;;;2.39;80.78;99107.69;1680649;84;21005;-71
2022/02/23 02:08:02;;;;;;;16.95;7.35;;;;;;;2.38;81.12;99113.41;1682328;84;21093;-70
2022/02/23 02:10:32;;;;;;;;;;;;;;;2.39;81.36;99110.41;1683948;85;21069;-70
2022/02/23 02:13:00;;;;;;;11.95;6.22;;;;;;;2.41;81.66;99112.84;1682370;85;21925;-72
2022/02/23 02:15:27;;;;;;;11.40;6.35;;;;;;;2.41;81.82;99118.28;1682139;85;20925;-70
2022/02/23 02:18:00;;;;;;;13.88;6.45;;;;;;;2.39;82.09;99119.92;1678942;85;20996;-71
2022/02/23 02:20:26;;;;;;;13.03;6.58;;;;;;;2.39;82.42;99119.92;1682534;84;20973;-71
2022/02/23 02:22:56;;;;;;;13.18;6.22;;;;;;;2.37;82.62;99124.81;1682550;85;21414;-70
2022/02/23 02:25:27;;;;;;;12.40;6.53;;;;;;;2.35;82.73;99126.19;1682753;85;21395;-68
2022/02/23 02:27:54;;;;;;;12.65;6.17;;;;;;;2.32;82.98;99127.55;1682577;85;21060;-70
2022/02/23 02:30:21;;;;;;;13.83;6.60;;;;;;;2.29;83.17;99126.73;1682614;85;20953;-71
2022/02/23 02:32:50;;;;;;;14.30;7.25;;;;;;;2.27;83.41;99127.58;1682700;85;21001;-71
2022/02/23 02:35:21;;;;;;;16.93;7.30;;;;;;;2.29;83.72;99137.61;1682729;85;21072;-71
2022/02/23 02:37:49;;;;;;;15.55;8.08;;;;;;;2.31;84.00;99140.34;1682601;85;21540;-70
2022/02/23 02:40:19;;;;;;;16.02;7.72;;;;;;;2.33;84.23;99146.87;1682593;84;21399;-72
2022/02/23 02:42:50;;;;;;;17.90;7.70;;;;;;;2.34;84.42;99147.13;1682997;84;21418;-70
2022/02/23 02:45:17;;;;;;;15.43;7.60;;;;;;;2.35;84.59;99150.67;1682860;85;20961;-72
2022/02/23 02:47:47;;;;;;;18.25;7.45;;;;;;;2.38;84.79;99160.45;1686967;84;20901;-72
2022/02/23 02:50:17;;;;;;;13.95;7.87;;;;;;;2.37;84.90;99159.38;1697453;84;21139;-71
2022/02/23 02:52:50;;;;;;;18.37;7.53;;;;;;;2.37;85.05;99163.45;1697466;84;20861;-71
2022/02/23 02:55:20;;;;;;;13.78;6.87;;;;;;;2.38;85.33;99167.26;1697192;84;21166;-71
2022/02/23 02:57:46;;;;;;;18.15;7.30;;;;;;;2.40;85.39;99165.09;1697598;84;21000;-72
2022/02/23 03:00:16;;;;;;;18.30;7.58;;;;;;;2.41;85.53;99169.42;1697431;84;20892;-72
2022/02/23 03:02:42;;;;;;;17.48;8.10;;;;;;;2.42;85.41;99177.05;1697610;84;21353;-71
2022/02/23 03:05:11;;;;;;;15.98;7.35;;;;;;;2.42;85.61;99179.20;1697088;83;21536;-71
2022/02/23 03:07:43;;;;;;;20.82;7.50;;;;;;;2.48;85.66;99183.28;1697386;84;21005;-71
2022/02/23 03:10:16;;;;;;;14.93;7.42;;;;;;;2.50;85.53;99176.48;1697551;84;20920;-72
2022/02/23 03:12:42;;;;;;;15.90;7.97;;;;;;;2.49;85.27;99178.13;1669712;84;21037;-71
2022/02/23 03:15:10;;;;;;;13.30;6.03;;;;;;;2.48;85.12;99178.66;1697762;84;21520;-73
2022/02/23 03:17:40;;;;;;;12.80;6.72;;;;;;;2.46;84.87;99183.55;1697051;84;21500;-72
2022/02/23 03:20:08;;;;;;;10.70;6.08;;;;;;;2.43;84.62;99181.39;1697707;84;20987;-71
2022/02/23 03:22:42;;;;;;;11.40;5.95;;;;;;;2.38;84.53;99178.14;1697592;84;20960;-71
2022/02/23 03:25:11;;;;;;;13.30;6.03;;;;;;;2.36;84.52;99172.15;1696296;84;21539;-69
2022/02/23 03:27:38;;;;;;;17.00;5.78;;;;;;;2.33;84.33;99179.50;1697579;84;21397;-70
2022/02/23 03:30:10;;;;;;;14.73;5.70;;;;;;;2.29;83.90;99180.59;1697393;84;20996;-69
2022/02/23 03:32:40;;;;;;;16.75;6.53;;;;;;;2.26;83.47;99177.59;1697188;84;20963;-70
2022/02/23 03:35:10;;;;;;;15.20;6.65;;;;;;;2.20;82.96;99180.88;1697631;84;20948;-72
2022/02/23 03:37:41;;;;;;;14.53;6.62;;;;;;;2.16;82.78;99190.65;1697605;84;20944;-71
2022/02/23 03:40:12;;;;;;;17.48;7.20;;;;;;;2.09;82.43;99184.13;1697483;84;21785;-68
2022/02/23 03:42:40;;;;;;;14.03;6.12;;;;;;;2.03;82.05;99186.58;1697136;84;21493;-68
2022/02/23 03:45:08;;;;;;;11.70;5.05;;;;;;;2.00;81.64;99196.61;1697551;84;20944;-68
2022/02/23 03:47:40;;;;;;;9.20;3.52;;;;;;;1.93;80.77;99207.22;1697363;84;20936;-70
2022/02/23 03:50:14;;;;;;;9.60;4.25;;;;;;;1.86;80.09;99205.30;1696804;84;20881;-71
2022/02/23 03:52:42;;;;;;;;;;;;;;;1.79;79.28;99208.84;1699511;84;21156;-69
2022/02/23 03:55:10;;;;;;;11.50;3.12;;;;;;;1.73;78.85;99205.81;1697540;83;20147;-68
2022/02/23 03:57:41;;;;;;;9.78;4.65;;;;;;;1.68;78.53;99210.17;1669511;84;21000;-72
2022/02/23 04:00:13;;;;;;;10.93;5.65;;;;;;;1.65;78.09;99216.68;1697626;84;21019;-69
2022/02/23 04:02:39;;;;;;;8.20;4.12;;;;;;;1.60;77.87;99215.30;1697650;84;21044;-69
2022/02/23 04:05:13;;;;;;;9.55;3.62;;;;;;;1.56;77.36;99218.56;1670211;83;21883;-67
2022/02/23 04:07:40;;;;;;;6.03;3.22;;;;;;;1.47;76.03;99226.14;1697950;84;21078;-70
2022/02/23 04:10:14;;;;;;;5.40;2.85;;;;;;;1.41;74.81;99230.20;1697455;83;21024;-72
2022/02/23 04:12:45;;;;;;;5.05;2.60;;;;;;;1.27;73.44;99229.86;1697667;84;21027;-71
2022/02/23 04:15:14;;;;;;;11.68;3.20;;;;;;;1.16;73.30;99226.27;1697071;84;21398;-71
2022/02/23 04:17:44;;;;;;;6.37;2.90;;;;;;;1.11;72.97;99232.23;1697496;84;21146;-71
2022/02/23 04:20:14;;;;;;;6.30;2.52;;;;;;;1.06;72.72;99236.55;1693792;84;21557;-69
2022/02/23 04:22:46;;;;;;;6.95;3.08;;;;;;;1.01;72.38;99237.08;1697174;84;21052;-69
2022/02/23 04:25:14;;;;;;;9.68;2.67;;;;;;;0.96;72.02;99235.95;1697498;84;21001;-71
2022/02/23 04:27:47;;;;;;;5.65;2.15;;;;;;;0.93;71.84;99239.73;1697551;84;21004;-69
2022/02/23 04:30:17;;;;;;;4.53;2.45;;;;;;;0.89;71.79;99239.44;1697575;84;21146;-68
2022/02/23 04:32:47;;;;;;;5.85;2.75;;;;;;;0.86;71.61;99235.89;1669988;84;20969;-70
2022/02/23 04:35:14;;;;;;;6.22;2.50;;;;;;;0.81;71.45;99241.28;1669916;84;21433;-71
2022/02/23 04:37:48;;;;;;;7.33;2.83;;;;;;;0.77;71.52;99242.91;1697422;84;20992;-73
2022/02/23 04:40:18;;;;;;;6.70;3.25;;;;;;;0.71;71.40;99244.23;1696836;84;20972;-72
2022/02/23 04:42:47;;;;;;;6.53;3.40;;;;;;;0.69;71.35;99250.44;1697510;84;21618;-71
2022/02/23 04:45:13;;;;;;;9.13;3.27;;;;;;;0.68;71.45;99251.50;1697188;84;21095;-71
2022/02/23 04:47:42;;;;;;;7.70;3.85;;;;;;;0.65;71.31;99246.61;1697493;84;21488;-69
2022/02/23 04:50:14;;;;;;;9.15;4.03;;;;;;;0.63;71.46;99254.20;1697413;84;20967;-70
2022/02/23 04:52:42;;;;;;;9.53;3.80;;;;;;;0.63;71.51;99254.20;1697571;84;20916;-69
2022/02/23 04:55:14;;;;;;;10.00;3.55;;;;;;;0.60;71.55;99260.95;1697478;84;21042;-71
2022/02/23 04:57:42;;;;;;;15.20;4.12;;;;;;;0.56;71.63;99261.18;1669490;84;21032;-69
2022/02/23 05:00:12;;;;;;;10.00;4.35;;;;;;;0.54;71.82;99270.66;1697453;84;21551;-71
2022/02/23 05:02:42;;;;;;;8.68;3.87;;;;;;;0.46;71.96;99274.12;1646961;84;20952;-72
2022/02/23 05:05:10;;;;;;;11.93;4.42;;;;;;;0.40;72.16;99272.98;1697439;83;20991;-70
2022/02/23 05:07:43;;;;;;;10.55;4.42;;;;;;;0.34;72.36;99276.21;1696907;84;21083;-71
2022/02/23 05:10:12;;;;;;;8.85;4.12;;;;;;;0.31;72.59;99278.88;1697452;84;21083;-70
2022/02/23 05:12:44;;;;;;;8.03;4.12;;;;;;;0.29;72.65;99293.23;1697780;84;21013;-72
2022/02/23 05:15:10;;;;;;;9.18;3.65;;;;;;;0.24;72.75;99285.88;1669707;84;21020;-71
2022/02/23 05:17:39;;;;;;;9.38;3.65;;;;;;;0.19;72.88;99284.47;1697479;84;21377;-72
2022/02/23 05:20:12;;;;;;;9.78;4.47;;;;;;;0.16;73.08;99289.05;1697780;84;21494;-72
2022/02/23 05:22:42;;;;;;;13.30;4.75;;;;;;;0.14;73.19;99287.13;1697204;84;21477;-70
2022/02/23 05:25:12;;;;;;;8.65;4.08;;;;;;;0.13;73.24;99294.16;1697494;84;21161;-71
2022/02/23 05:27:42;;;;;;;7.53;3.22;;;;;;;0.12;73.41;99298.75;1697375;84;21027;-71
2022/02/23 05:30:11;;;;;;;13.48;4.25;;;;;;;0.14;73.27;99295.81;1697842;84;21043;-68
2022/02/23 05:32:40;;;;;;;7.12;3.15;;;;;;;0.15;73.35;99298.27;1697492;84;21392;-73
2022/02/23 05:35:07;;;;;;;10.68;4.62;;;;;;;0.17;73.12;99300.16;1697641;84;20956;-71
2022/02/23 05:37:37;;;;;;;6.95;3.15;;;;;;;0.18;73.13;99307.77;1697585;84;20869;-72
2022/02/23 05:40:06;;;;;;;8.33;3.58;;;;;;;0.22;73.35;99308.90;1697633;84;20960;-71
2022/02/23 05:42:34;;;;;;;9.10;3.55;;;;;;;0.27;73.08;99310.31;1697446;84;20916;-71
2022/02/23 05:45:03;;;;;;;6.65;3.33;;;;;;;0.30;73.01;99311.67;1697477;84;21858;-72
2022/02/23 05:47:31;;;;;;;8.75;3.85;;;;;;;0.31;72.87;99316.84;1697328;84;21035;-71
2022/02/23 05:50:00;;;;;;;7.85;3.60;;;;;;;0.34;72.60;99319.59;1697434;84;21071;-70
2022/02/23 05:52:27;;;;;;;9.63;3.95;;;;;;;0.39;72.39;99325.05;1697427;84;20924;-71
2022/02/23 05:54:57;;;;;;;6.78;3.25;;;;;;;0.41;72.34;99326.95;1697445;84;21098;-70
2022/02/23 05:57:28;;;;;;;8.05;2.95;;;;;;;0.48;72.11;99329.45;1697694;84;20924;-71
2022/02/23 05:59:57;;;;;;;6.58;3.10;;;;;;;0.52;71.91;99333.30;1697378;84;20948;-70
2022/02/23 06:02:25;;;;;;;5.87;3.25;;;;;;;0.58;71.73;99329.55;1697493;84;21413;-69
2022/02/23 06:04:54;;;;;;;11.22;4.28;;;;;;;0.66;71.68;99332.34;1697685;83;21528;-71
2022/02/23 06:07:51;;;;;;;14.80;5.03;;;;;;;0.73;71.19;99336.98;1697820;84;20896;-71
2022/02/23 06:10:24;;;;;;;8.83;3.62;;;;;;;0.80;71.06;99345.47;1694347;84;22195;-71
2022/02/23 06:13:04;;;;;;;6.70;3.60;;;;;;;0.85;70.54;99344.95;1697707;84;21513;-71
2022/02/23 06:15:37;;;;;;;10.35;4.17;;;;;;;0.89;70.38;99346.61;1697455;84;21389;-73
2022/02/23 06:18:07;;;;;;;8.35;3.60;;;;;;;0.94;70.28;99348.00;1697665;84;21480;-72
2022/02/23 06:20:37;;;;;;;8.38;3.17;;;;;;;0.99;70.08;99347.78;1697725;84;21004;-71
2022/02/23 06:23:09;;;;;;;14.47;3.40;;;;;;;1.03;70.01;99354.30;1697552;84;21005;-70
2022/02/23 06:25:40;;;;;;;10.38;3.25;;;;;;;1.08;69.66;99357.05;1697580;84;20965;-71
2022/02/23 06:28:07;;;;;;;7.03;3.42;;;;;;;1.11;69.52;99359.80;1697692;84;21433;-71
2022/02/23 06:30:37;;;;;;;8.83;3.72;;;;;;;1.16;69.71;99364.70;1697546;84;20972;-71
2022/02/23 06:33:08;;;;;;;7.92;3.17;;;;;;;1.19;69.58;99365.56;1697728;84;20996;-72
2022/02/23 06:35:40;;;;;;;7.72;3.85;;;;;;;1.24;69.58;99362.59;1697576;84;21991;-73
2022/02/23 06:38:06;;;;;;;9.03;3.40;;;;;;;1.27;69.38;99361.53;1697678;84;21061;-70
2022/02/23 06:40:35;;;;;;;5.75;2.98;;;;;;;1.32;69.30;99367.00;1698014;84;21000;-72
2022/02/23 06:43:03;;;;;;;9.20;4.17;;;;;;;1.39;69.20;99367.30;1697591;84;20924;-71
2022/02/23 06:45:35;;;;;;;8.30;3.83;;;;;;;1.46;69.09;99373.32;1697762;84;20964;-71
2022/02/23 06:48:05;;;;;;;6.85;3.37;;;;;;;1.51;68.71;99377.42;1694285;84;21983;-72
2022/02/23 06:50:35;;;;;;;11.70;4.37;;;;;;;1.55;68.33;99375.01;1697594;84;21543;-70
2022/02/23 06:53:08;;;;;;;6.30;3.00;;;;;;;1.49;67.68;99371.96;1696827;84;20932;-71
2022/02/23 06:55:37;;;;;;;13.03;4.10;;;;;;;1.49;68.04;99376.04;1697654;84;20988;-71
2022/02/23 06:58:08;;;;;;;10.85;5.22;;;;;;;1.55;67.09;99381.80;1697671;84;46560;-71
2022/02/23 07:00:41;;;;;;;9.85;4.65;;;;;;;1.56;67.37;99380.17;1697371;84;21331;-68
2022/02/23 07:03:08;;;;;;;9.75;4.35;;;;;;;1.54;66.34;99383.69;1697632;84;20945;-72
2022/02/23 07:05:35;;;;;;;7.78;4.42;;;;;;;1.57;66.06;99389.12;1697500;83;20949;-71
2022/02/23 07:08:07;;;;;;;11.43;4.12;;;;;;;1.65;66.15;99394.08;1697648;84;20928;-72
2022/02/23 07:10:36;;;;;;;12.68;6.03;;;;;;;1.74;66.20;99402.52;1697684;84;21000;-73
2022/02/23 07:13:06;;;;;;;11.93;5.15;;;;;;;1.85;65.97;99399.86;1697605;84;21461;-72
2022/02/23 07:15:35;;;;;;;12.28;5.92;;;;;;;1.93;65.91;99397.45;1697567;84;20916;-71
2022/02/23 07:18:07;;;;;;;8.65;4.15;;;;;;;2.02;66.15;99405.92;1697552;84;21054;-70
2022/02/23 07:20:40;;;;;;;7.95;4.65;;;;;;;2.05;64.72;99401.84;1697383;84;21049;-72
2022/02/23 07:23:08;;;;;;;6.78;4.15;;;;;;;2.06;64.56;99405.66;1697825;84;21505;-73
2022/02/23 07:25:40;;;;;;;9.23;4.95;;;;;;;2.10;64.39;99411.94;1697474;84;20984;-73
2022/02/23 07:28:09;;;;;;;16.02;4.08;;;;;;;2.02;63.79;99416.80;1697549;84;21424;-70
2022/02/23 07:30:39;;;;;;;8.38;4.55;;;;;;;2.06;63.75;99415.16;1694529;84;21043;-71
2022/02/23 07:33:05;;;;;;;10.85;3.98;;;;;;;2.14;63.84;99423.37;1697440;84;20940;-70
2022/02/23 07:35:32;;;;;;;9.40;4.33;;;;;;;2.18;61.72;99413.58;1697822;84;21083;-72
2022/02/23 07:38:07;;;;;;;8.45;4.10;;;;;;;2.10;61.89;99420.09;1670729;84;21021;-73
2022/02/23 07:40:32;;;;;;;9.28;4.75;;;;;;;2.04;61.40;99420.61;1697461;84;20952;-74
2022/02/23 07:43:03;;;;;;;7.00;3.30;;;;;;;2.03;62.42;99423.06;1697495;84;21028;-72
2022/02/23 07:45:33;;;;;;;7.58;3.40;;;;;;;2.18;62.40;99431.81;1697627;84;21004;-71
2022/02/23 07:48:02;;;;;;;7.58;3.30;;;;;;;2.30;61.62;99428.87;1696624;84;21060;-73
2022/02/23 07:50:31;;;;;;;10.48;4.58;;;;;;;2.37;61.50;99423.97;1682608;85;21569;-72
2022/02/23 07:52:57;;;;;;;5.78;2.92;;;;;;;2.50;61.73;99431.36;1658889;85;20921;-70
2022/02/23 07:55:25;;;;;;;6.60;4.12;;;;;;;2.60;60.86;99434.64;1682896;85;21021;-72
2022/02/23 07:57:56;;;;;;;5.78;3.08;;;;;;;2.60;60.38;99435.47;1682600;85;20905;-72
2022/02/23 08:00:24;;;;;;;7.90;3.47;;;;;;;2.58;60.51;99434.12;1682927;85;20966;-70
2022/02/23 08:02:53;;;;;;;7.30;3.65;;;;;;;2.62;60.20;99432.48;1682738;85;21533;-72
2022/02/23 08:05:21;;;;;;;8.23;3.40;;;;;;;2.68;60.76;99435.47;1682713;84;21521;-75
2022/02/23 08:07:57;;;;;;;4.75;2.20;;;;;;;2.84;60.90;99440.95;1682510;85;20988;-71
2022/02/23 08:10:26;;;;;;;4.62;2.95;;;;;;;2.94;59.47;99435.52;1682213;85;20953;-72
2022/02/23 08:12:58;;;;;;;6.65;3.20;;;;;;;3.00;58.76;99434.98;1682637;84;20996;-72
2022/02/23 08:21:10;;;;;;;6.50;2.90;;;;;;;3.19;58.08;99427.64;1682570;85;21000;-71
2022/02/23 08:23:38;;;;;;;5.65;3.00;;;;;;;3.16;58.48;99425.72;1681062;85;20917;-70
2022/02/23 08:26:05;;;;;;;4.35;2.83;;;;;;;3.22;59.02;99427.09;1682686;85;20965;-72
2022/02/23 08:28:35;;;;;;;5.72;3.67;;;;;;;3.15;57.20;99434.17;1682744;84;21116;-72
2022/02/23 08:31:05;;;;;;;6.58;3.50;;;;;;;2.96;57.76;99425.72;1682642;85;20937;-73
2022/02/23 08:33:38;;;;;;;6.83;3.17;;;;;;;2.92;59.21;99425.44;1682689;84;21505;-72
2022/02/23 08:36:08;;;;;;;7.47;4.17;;;;;;;3.04;58.75;99430.61;1658858;85;20937;-72
2022/02/23 08:38:38;;;;;;;7.20;2.98;;;;;;;3.13;59.93;99430.89;1682920;84;20873;-72
2022/02/23 08:41:08;;;;;;;5.30;3.27;;;;;;;3.32;59.48;99427.08;1682213;85;21141;-71
2022/02/23 08:43:34;;;;;;;4.92;2.42;;;;;;;3.44;59.09;99419.98;1682504;85;21009;-72
2022/02/23 08:46:07;;;;;;;4.83;2.70;;;;;;;3.57;59.02;99418.59;1682546;84;21004;-72
2022/02/23 08:48:35;;;;;;;6.80;2.55;;;;;;;3.68;58.85;99419.94;1684842;84;21015;-72
2022/02/23 08:51:05;;;;;;;7.28;2.90;;;;;;;3.77;57.38;99417.72;1695783;84;21060;-72
2022/02/23 08:53:33;;;;;;;8.68;3.10;;;;;;;3.78;57.46;99414.46;1695819;84;21330;-69
2022/02/23 08:56:03;;;;;;;5.62;2.72;;;;;;;3.86;58.18;99415.78;1695562;84;21008;-73
2022/02/23 08:58:32;;;;;;;6.00;3.33;;;;;;;3.93;57.29;99412.23;1731277;82;21546;-72
2022/02/23 09:01:03;;;;;;;12.20;4.08;;;;;;;3.97;57.54;99413.86;1730611;82;21558;-71
2022/02/23 09:03:34;;;;;;;3.85;2.62;;;;;;;4.11;58.00;99418.97;1730331;82;20984;-69
2022/02/23 09:06:02;;;;;;;6.65;3.02;;;;;;;4.27;56.69;99416.17;1690613;84;21524;-69
2022/02/23 09:08:33;;;;;;;7.50;3.37;;;;;;;4.34;57.08;99414.50;1681701;84;21652;-66
2022/02/23 09:11:06;;;;;;;7.35;3.17;;;;;;;4.41;56.20;99419.66;1725193;83;20988;-71
2022/02/23 09:13:38;;;;;;;10.98;3.15;;;;;;;4.45;56.30;99419.38;1721910;83;20972;-71
2022/02/23 09:16:09;;;;;;;5.40;2.40;;;;;;;4.46;55.46;99422.35;1727023;83;20993;-69
2022/02/23 09:18:37;;;;;;;3.27;2.45;;;;;;;4.46;54.98;99425.91;1729716;82;21145;-71
2022/02/23 09:21:04;;;;;;;5.15;2.35;;;;;;;4.43;55.02;99423.75;1730636;82;21017;-71
2022/02/23 09:23:32;;;;;;;5.28;2.60;;;;;;;4.46;55.37;99420.98;1729724;82;21441;-70
2022/02/23 09:26:05;;;;;;;7.45;2.85;;;;;;;4.54;55.18;99424.48;1722994;83;21049;-71
2022/02/23 09:28:37;;;;;;;;;;;;;;;4.62;53.98;99434.02;1732994;82;21006;-70
2022/02/23 09:31:10;;;;;;;5.55;2.52;;;;;;;4.61;53.36;99431.00;1730636;83;21943;-68
2022/02/23 09:33:39;;;;;;;6.58;2.85;;;;;;;4.60;54.08;99426.64;1730798;82;21699;-70
2022/02/23 09:36:05;;;;;;;6.42;3.12;;;;;;;4.64;53.22;99424.97;1730711;83;21024;-69
2022/02/23 09:38:33;;;;;;;8.75;3.52;;;;;;;4.63;53.46;99425.54;1712578;83;20997;-69
2022/02/23 09:41:04;;;;;;;8.88;2.83;;;;;;;4.65;52.98;99423.89;1730814;82;21521;-68
2022/02/23 09:43:33;;;;;;;7.75;3.45;;;;;;;4.57;52.40;99422.55;1723020;82;21714;-67
2022/02/23 09:46:08;;;;;;;4.55;2.72;;;;;;;4.53;53.38;99418.77;1729241;82;21477;-71
2022/02/23 09:48:34;;;;;;;9.83;4.53;;;;;;;4.51;53.18;99420.96;1730694;81;21001;-71
2022/02/23 09:51:06;;;;;;;11.50;5.70;;;;;;;4.51;53.50;99420.96;1729415;82;20993;-69
2022/02/23 09:53:32;;;;;;;7.12;3.55;;;;;;;4.56;53.24;99416.02;1734490;82;21028;-71
2022/02/23 09:56:01;;;;;;;6.80;3.30;;;;;;;4.61;52.99;99430.45;1735844;82;21578;-70
2022/02/23 09:58:28;;;;;;;10.60;3.42;;;;;;;4.62;53.09;99427.19;1735046;82;21623;-71
2022/02/23 10:01:00;;;;;;;5.58;2.95;;;;;;;4.68;52.95;99429.31;1733896;82;21551;-72
2022/02/23 10:03:27;;;;;;;6.85;3.90;;;;;;;4.77;52.66;99424.91;1713454;82;21097;-69
2022/02/23 10:05:57;;;;;;;8.88;3.52;;;;;;;4.85;52.75;99427.03;1735657;82;21055;-69
2022/02/23 10:08:34;;;;;;;6.33;3.40;;;;;;;4.92;52.53;99423.97;1689040;82;21006;-69
2022/02/23 10:11:01;;;;;;;8.70;3.50;;;;;;;5.01;51.59;99429.65;1731381;82;20969;-70
2022/02/23 10:13:29;;;;;;;8.10;3.50;;;;;;;5.11;51.62;99427.38;1734257;82;21036;-70
2022/02/23 10:15:59;;;;;;;10.80;4.37;;;;;;;5.16;50.79;99430.62;1735412;82;21041;-71
2022/02/23 10:18:30;;;;;;;11.12;3.70;;;;;;;5.20;50.71;99427.02;1734870;82;20945;-70
2022/02/23 10:20:58;;;;;;;6.17;2.43;;;;;;;5.24;51.14;99429.45;1712753;82;21098;-70
2022/02/23 10:23:28;;;;;;;6.75;2.65;;;;;;;5.31;49.60;99427.76;1735304;82;21040;-69
2022/02/23 10:26:12;;;;;;;7.62;2.92;;;;;;;5.28;48.89;99431.07;1691082;82;21549;-70
2022/02/23 10:28:35;;;;;;;10.72;3.02;;;;;;;5.15;48.77;99434.46;1729001;82;20973;-71
2022/02/23 10:31:11;;;;;;;7.40;2.83;;;;;;;5.07;49.33;99429.87;1732008;82;21504;-70
2022/02/23 10:33:38;;;;;;;9.77;2.77;;;;;;;5.15;49.67;99432.55;1696395;83;21072;-70
2022/02/23 10:36:15;;;;;;;8.13;3.55;;;;;;;5.22;49.13;99425.39;1732011;82;21417;-68
2022/02/23 10:38:50;;;;;;;6.35;3.08;;;;;;;5.31;48.65;99425.56;1729077;82;21064;-69
2022/02/23 10:41:32;;;;;;;6.37;3.02;;;;;;;5.36;48.90;99423.61;1711617;82;21572;-69
2022/02/23 10:43:59;;;;;;;5.25;2.52;;;;;;;5.40;48.58;99417.56;1735836;82;21039;-72
2022/02/23 10:46:35;;;;;;;6.22;2.92;;;;;;;5.37;47.62;99424.44;1734580;82;21485;-70
2022/02/23 10:49:02;;;;;;;7.25;2.80;;;;;;;5.34;47.67;99418.19;1711710;81;21016;-68
2022/02/23 10:51:38;;;;;;;3.70;1.92;;;;;;;5.40;48.35;99425.77;1756855;80;20998;-71
2022/02/23 10:54:11;;;;;;;4.35;2.10;;;;;;;5.49;47.56;99430.89;1756013;81;21537;-70
2022/02/23 10:56:44;;;;;;;6.78;2.37;;;;;;;5.53;46.88;99425.09;1754234;81;20985;-72
2022/02/23 10:59:19;;;;;;;5.95;2.65;;;;;;;5.47;47.08;99417.52;1758613;81;21147;-71
2022/02/23 11:01:48;;;;;;;5.03;2.60;;;;;;;5.55;47.38;99420.16;1755608;81;20993;-69
2022/02/23 11:04:20;;;;;;;5.22;2.42;;;;;;;5.60;46.34;99418.74;1758671;81;21008;-70
2022/02/23 11:06:51;;;;;;;5.83;2.95;;;;;;;5.56;46.81;99423.72;1750427;81;21017;-70
2022/02/23 11:09:17;;;;;;;5.00;2.50;;;;;;;5.45;46.87;99420.25;1758790;81;21076;-72
2022/02/23 11:11:44;;;;;;;4.40;2.37;;;;;;;5.39;47.08;99418.69;1758314;81;21960;-70
2022/02/23 11:14:11;;;;;;;5.70;2.65;;;;;;;5.39;47.36;99422.20;1688645;84;21019;-69
2022/02/23 11:16:43;;;;;;;6.55;2.83;;;;;;;5.41;47.03;99414.55;1701431;84;21144;-73
2022/02/23 11:19:10;;;;;;;5.47;2.07;;;;;;;5.45;47.29;99413.42;1702359;83;21041;-72
2022/02/23 11:21:43;;;;;;;3.35;2.10;;;;;;;5.53;46.49;99417.44;1701849;84;21253;-68
2022/02/23 11:24:12;;;;;;;5.05;2.42;;;;;;;5.50;46.76;99420.20;1681029;84;21553;-70
2022/02/23 11:26:42;;;;;;;4.72;2.90;;;;;;;5.54;46.76;99418.54;1703218;84;21088;-70
2022/02/23 11:29:30;;;;;;;4.28;2.25;;;;;;;5.52;47.01;99416.64;1704400;84;21064;-70
2022/02/23 11:32:01;;;;;;;7.05;2.83;;;;;;;5.55;46.96;99413.33;1671362;84;21587;-70
2022/02/23 11:34:29;;;;;;;5.25;2.62;;;;;;;5.63;46.86;99416.54;1677694;84;20973;-71
2022/02/23 11:37:02;;;;;;;8.55;3.12;;;;;;;5.67;46.59;99414.84;1677922;84;21143;-72
2022/02/23 11:39:31;;;;;;;12.20;2.98;;;;;;;5.68;46.42;99411.81;1707163;84;21050;-71
2022/02/23 11:42:03;;;;;;;6.95;2.83;;;;;;;5.72;46.40;99410.69;1706686;83;21041;-72
2022/02/23 11:44:42;;;;;;;7.28;2.55;;;;;;;5.77;46.92;99413.37;1703883;83;21005;-72
2022/02/23 11:47:13;;;;;;;6.90;2.25;;;;;;;5.80;46.91;99408.68;1682853;84;20952;-71
2022/02/23 11:50:52;;;;;;;6.85;2.58;;;;;;;5.88;46.71;99408.61;1683877;83;20974;-72
2022/02/23 11:53:39;;;;;;;3.15;1.87;;;;;;;5.96;46.64;99400.30;1707307;84;21028;-68
2022/02/23 11:57:06;;;;;;;3.25;2.08;;;;;;;6.08;46.04;99400.73;1707351;84;20882;-72
2022/02/23 12:00:08;;;;;;;12.23;2.90;;;;;;;6.08;45.78;99400.73;1688717;84;21038;-70